createdAt,value
2022-08-27T00:01:43.344Z,7.72
2022-08-27T00:04:09.735Z,6.43
2022-08-27T00:06:36.565Z,6.82
2022-08-27T00:09:04.184Z,6.97
2022-08-27T00:11:30.505Z,6.75
2022-08-27T00:13:56.796Z,6.32
2022-08-27T00:16:23.528Z,6.95
2022-08-27T00:18:49.858Z,6.60
2022-08-27T00:21:16.172Z,6.53
2022-08-27T00:23:42.472Z,6.15
2022-08-27T00:26:08.809Z,7.15
2022-08-27T00:28:35.273Z,7.28
2022-08-27T00:31:01.593Z,7.15
2022-08-27T00:33:27.894Z,6.88
2022-08-27T00:35:54.202Z,7.38
2022-08-27T00:38:20.520Z,7.18
2022-08-27T00:40:46.893Z,6.57
2022-08-27T00:43:13.313Z,6.88
2022-08-27T00:45:39.690Z,7.18
2022-08-27T00:48:06.080Z,7.13
2022-08-27T00:50:33.449Z,7.05
2022-08-27T00:52:59.757Z,8.07
2022-08-27T00:55:28.720Z,7.13
2022-08-27T00:57:55.017Z,8.27
2022-08-27T01:00:21.319Z,7.20
2022-08-27T01:02:48.371Z,7.38
2022-08-27T01:05:15.266Z,7.18
2022-08-27T01:07:41.486Z,7.07
2022-08-27T01:10:07.794Z,7.18
2022-08-27T01:12:34.599Z,7.03
2022-08-27T01:15:00.892Z,7.20
2022-08-27T01:17:27.532Z,7.07
2022-08-27T01:19:53.839Z,7.28
2022-08-27T01:22:23.193Z,6.90
2022-08-27T01:24:49.867Z,7.80
2022-08-27T01:27:16.219Z,7.03
2022-08-27T01:29:42.522Z,7.47
2022-08-27T01:32:09.392Z,8.70
2022-08-27T01:34:35.629Z,8.40
2022-08-27T01:37:01.941Z,8.65
2022-08-27T01:39:28.244Z,7.60
2022-08-27T01:41:54.539Z,8.27
2022-08-27T01:44:21.083Z,7.70
2022-08-27T01:46:47.474Z,8.18
2022-08-27T01:49:13.866Z,7.70
2022-08-27T01:51:40.184Z,6.70
2022-08-27T01:54:06.831Z,8.15
2022-08-27T01:56:33.145Z,7.57
2022-08-27T01:58:59.447Z,7.65
2022-08-27T02:01:25.842Z,6.78
2022-08-27T02:03:52.213Z,7.30
2022-08-27T02:06:18.522Z,7.55
2022-08-27T02:08:45.065Z,7.18
2022-08-27T02:11:11.385Z,7.75
2022-08-27T02:13:37.718Z,7.90
2022-08-27T02:16:04.187Z,7.25
2022-08-27T02:18:30.520Z,7.35
2022-08-27T02:20:56.833Z,8.50
2022-08-27T02:23:23.140Z,8.27
2022-08-27T02:25:49.457Z,7.57
2022-08-27T02:28:15.785Z,7.05
2022-08-27T02:30:42.103Z,8.65
2022-08-27T02:33:08.418Z,8.85
2022-08-27T02:35:34.724Z,8.88
2022-08-27T02:38:02.023Z,9.55
2022-08-27T02:40:28.473Z,9.40
2022-08-27T02:42:54.880Z,9.50
2022-08-27T02:45:21.170Z,8.77
2022-08-27T02:47:48.493Z,8.55
2022-08-27T02:50:14.821Z,8.35
2022-08-27T02:52:41.124Z,9.68
2022-08-27T02:55:07.454Z,8.07
2022-08-27T02:57:36.382Z,7.90
2022-08-27T03:00:03.220Z,8.88
2022-08-27T03:02:29.615Z,7.68
2022-08-27T03:04:55.982Z,7.90
2022-08-27T03:07:24.279Z,8.60
2022-08-27T03:09:50.597Z,7.32
2022-08-27T03:12:16.904Z,7.18
2022-08-27T03:14:43.296Z,7.53
2022-08-27T03:17:28.103Z,7.43
2022-08-27T03:19:55.521Z,7.45
2022-08-27T03:22:21.825Z,7.65
2022-08-27T03:24:48.167Z,7.20
2022-08-27T03:27:15.329Z,6.70
2022-08-27T03:29:41.650Z,6.40
2022-08-27T03:32:07.976Z,6.53
2022-08-27T03:34:34.318Z,6.82
2022-08-27T03:37:01.376Z,6.90
2022-08-27T03:39:27.701Z,6.00
2022-08-27T03:41:55.706Z,6.72
2022-08-27T03:44:22.209Z,6.57
2022-08-27T03:46:48.700Z,6.40
2022-08-27T03:49:15.170Z,6.10
2022-08-27T03:51:41.473Z,5.18
2022-08-27T03:54:07.771Z,6.47
2022-08-27T03:56:39.187Z,6.38
2022-08-27T03:59:05.820Z,7.07
2022-08-27T04:01:32.209Z,6.18
2022-08-27T04:03:58.539Z,6.25
2022-08-27T04:06:24.835Z,5.63
2022-08-27T04:08:51.130Z,6.13
2022-08-27T04:11:17.595Z,6.40
2022-08-27T04:13:44.364Z,5.25
2022-08-27T04:16:10.785Z,5.35
2022-08-27T04:18:37.111Z,5.00
2022-08-27T04:21:03.433Z,5.72
2022-08-27T04:23:29.740Z,6.15
2022-08-27T04:25:56.061Z,4.90
2022-08-27T04:28:22.351Z,5.82
2022-08-27T04:30:48.681Z,6.05
2022-08-27T04:33:14.984Z,6.95
2022-08-27T04:35:41.279Z,6.75
2022-08-27T04:38:07.636Z,7.10
2022-08-27T04:40:52.970Z,6.88
2022-08-27T04:43:19.290Z,8.80
2022-08-27T04:45:45.591Z,8.18
2022-08-27T04:48:12.016Z,8.48
2022-08-27T04:50:38.452Z,9.63
2022-08-27T04:53:04.747Z,9.95
2022-08-27T04:55:31.166Z,10.00
2022-08-27T04:57:57.502Z,9.77
2022-08-27T05:00:23.805Z,9.82
2022-08-27T05:02:50.159Z,10.35
2022-08-27T05:05:16.936Z,8.02
2022-08-27T05:07:43.423Z,9.25
2022-08-27T05:10:09.720Z,8.82
2022-08-27T05:12:36.029Z,8.60
2022-08-27T05:15:02.336Z,8.30
2022-08-27T05:17:31.308Z,8.10
2022-08-27T05:19:57.628Z,9.35
2022-08-27T05:22:23.948Z,8.48
2022-08-27T05:24:50.451Z,8.35
2022-08-27T05:27:17.688Z,8.55
2022-08-27T05:29:43.983Z,7.90
2022-08-27T05:32:10.433Z,8.57
2022-08-27T05:34:36.725Z,8.32
2022-08-27T05:37:03.041Z,9.07
2022-08-27T05:39:29.338Z,10.95
2022-08-27T05:41:55.647Z,11.15
2022-08-27T05:44:41.071Z,13.57
2022-08-27T05:47:08.089Z,10.90
2022-08-27T05:49:34.429Z,11.98
2022-08-27T05:52:00.736Z,12.57
2022-08-27T05:54:27.060Z,12.13
2022-08-27T05:56:53.361Z,12.32
2022-08-27T05:59:38.207Z,10.45
2022-08-27T06:02:05.853Z,11.77
2022-08-27T06:04:32.170Z,11.63
2022-08-27T06:06:58.462Z,10.88
2022-08-27T06:09:24.785Z,11.77
2022-08-27T06:11:51.092Z,10.70
2022-08-27T06:14:17.409Z,10.25
2022-08-27T06:16:44.303Z,10.35
2022-08-27T06:19:12.113Z,9.73
2022-08-27T06:24:04.652Z,9.95
2022-08-27T06:26:30.953Z,8.90
2022-08-27T06:28:57.856Z,9.73
2022-08-27T06:31:24.160Z,10.30
2022-08-27T06:33:51.680Z,10.85
2022-08-27T06:36:18.176Z,11.50
2022-08-27T06:38:44.628Z,11.20
2022-08-27T06:41:16.396Z,11.60
2022-08-27T06:43:49.539Z,9.77
2022-08-27T06:46:15.916Z,10.13
2022-08-27T06:48:44.903Z,9.73
2022-08-27T06:51:12.505Z,9.63
2022-08-27T06:53:38.809Z,9.23
2022-08-27T06:56:05.291Z,9.18
2022-08-27T06:58:31.600Z,8.02
2022-08-27T07:00:57.909Z,8.93
2022-08-27T07:03:24.216Z,8.80
2022-08-27T07:05:50.689Z,8.50
2022-08-27T07:08:16.996Z,8.15
2022-08-27T07:10:43.320Z,8.00
2022-08-27T07:13:09.637Z,8.15
2022-08-27T07:15:35.990Z,9.02
2022-08-27T07:18:04.105Z,8.52
2022-08-27T07:20:32.979Z,8.60
2022-08-27T07:22:59.288Z,8.88
2022-08-27T07:25:26.163Z,8.50
2022-08-27T07:27:52.403Z,9.03
2022-08-27T07:30:18.741Z,8.43
2022-08-27T07:32:45.058Z,8.80
2022-08-27T07:35:11.356Z,9.43
2022-08-27T07:37:37.660Z,8.30
2022-08-27T07:40:04.010Z,9.63
2022-08-27T07:42:49.200Z,8.30
2022-08-27T07:45:15.510Z,8.90
2022-08-27T07:47:42.351Z,10.10
2022-08-27T07:50:08.660Z,10.52
2022-08-27T07:52:35.146Z,9.32
2022-08-27T07:55:01.495Z,9.45
2022-08-27T07:57:27.806Z,9.70
2022-08-27T07:59:54.102Z,9.02
2022-08-27T08:02:20.495Z,9.90
2022-08-27T08:04:47.036Z,10.35
2022-08-27T08:07:13.823Z,11.73
2022-08-27T08:09:40.119Z,10.32
2022-08-27T08:12:07.464Z,9.57
2022-08-27T08:14:33.807Z,11.40
2022-08-27T08:17:00.628Z,11.45
2022-08-27T08:19:27.444Z,12.75
2022-08-27T08:21:59.468Z,11.73
2022-08-27T08:24:26.796Z,11.82
2022-08-27T08:26:53.131Z,11.27
2022-08-27T08:29:19.512Z,10.00
2022-08-27T08:31:50.305Z,10.77
2022-08-27T08:34:16.804Z,11.38
2022-08-27T08:39:20.301Z,11.27
2022-08-27T08:41:46.611Z,11.02
2022-08-27T08:44:12.912Z,9.65
2022-08-27T08:46:39.717Z,10.00
2022-08-27T08:49:06.024Z,10.20
2022-08-27T08:51:32.660Z,10.68
2022-08-27T08:53:58.984Z,9.85
2022-08-27T08:56:25.315Z,10.05
2022-08-27T08:58:51.615Z,10.25
2022-08-27T09:01:18.580Z,9.95
2022-08-27T09:03:45.003Z,10.40
2022-08-27T09:06:11.945Z,8.38
2022-08-27T09:08:41.698Z,7.97
2022-08-27T09:11:08.456Z,8.30
2022-08-27T09:13:34.759Z,8.68
2022-08-27T09:16:01.147Z,8.45
2022-08-27T09:18:27.999Z,7.82
2022-08-27T09:20:54.574Z,7.80
2022-08-27T09:25:48.881Z,7.38
2022-08-27T09:28:33.816Z,7.22
2022-08-27T09:31:00.235Z,6.82
2022-08-27T09:33:26.616Z,6.70
2022-08-27T09:36:12.935Z,6.28
2022-08-27T09:41:07.388Z,5.93
2022-08-27T09:43:33.679Z,5.50
2022-08-27T09:46:00.144Z,6.03
2022-08-27T09:48:26.528Z,7.05
2022-08-27T09:50:52.921Z,6.38
2022-08-27T09:53:19.221Z,6.65
2022-08-27T09:55:46.599Z,6.93
2022-08-27T09:58:12.927Z,6.05
2022-08-27T10:00:39.253Z,6.00
2022-08-27T10:03:05.633Z,6.07
2022-08-27T10:05:32.171Z,5.32
2022-08-27T10:07:58.598Z,5.45
2022-08-27T10:10:25.512Z,4.88
2022-08-27T10:12:52.176Z,5.60
2022-08-27T10:15:18.466Z,4.80
2022-08-27T10:17:44.770Z,4.95
2022-08-27T10:20:11.096Z,4.95
2022-08-27T10:22:41.179Z,4.40
2022-08-27T10:25:07.484Z,4.05
2022-08-27T10:27:33.800Z,3.80
2022-08-27T10:30:00.686Z,4.82
2022-08-27T10:32:26.961Z,4.47
2022-08-27T10:34:53.699Z,4.07
2022-08-27T10:37:20.056Z,4.00
2022-08-27T10:39:46.391Z,4.18
2022-08-27T10:42:12.694Z,3.58
2022-08-27T10:44:39.377Z,2.53
2022-08-27T10:47:05.712Z,2.42
2022-08-27T10:49:32.045Z,2.38
2022-08-27T10:51:58.896Z,2.83
2022-08-27T10:54:25.136Z,3.23
2022-08-27T10:57:03.687Z,3.03
2022-08-27T10:59:37.704Z,3.30
2022-08-27T11:02:04.031Z,3.53
2022-08-27T11:04:30.368Z,3.15
2022-08-27T11:06:57.775Z,2.35
2022-08-27T11:09:24.081Z,1.90
2022-08-27T11:14:37.613Z,1.42
2022-08-27T11:17:04.117Z,1.63
2022-08-27T11:19:30.403Z,1.25
2022-08-27T11:21:56.699Z,1.00
2022-08-27T11:24:23.006Z,1.20
2022-08-27T11:26:49.313Z,1.40
2022-08-27T11:29:16.048Z,1.48
2022-08-27T11:31:43.537Z,1.52
2022-08-27T11:34:10.235Z,1.50
2022-08-27T11:36:36.532Z,1.20
2022-08-27T11:39:02.865Z,1.52
2022-08-27T11:41:29.172Z,1.40
2022-08-27T11:43:59.586Z,2.03
2022-08-27T11:46:26.200Z,1.90
2022-08-27T11:48:52.541Z,1.88
2022-08-27T11:51:21.314Z,1.80
2022-08-27T11:53:52.185Z,2.10
2022-08-27T11:56:19.100Z,1.88
2022-08-27T11:58:53.204Z,1.95
2022-08-27T12:01:20.020Z,2.28
2022-08-27T12:03:46.593Z,2.05
2022-08-27T12:06:12.931Z,2.25
2022-08-27T12:08:39.339Z,2.33
2022-08-27T12:11:05.633Z,2.10
2022-08-27T12:13:31.983Z,2.33
2022-08-27T12:15:58.443Z,2.40
2022-08-27T12:18:24.789Z,2.67
2022-08-27T12:20:51.107Z,2.90
2022-08-27T12:23:36.384Z,3.13
2022-08-27T12:26:02.692Z,3.38
2022-08-27T12:28:29.007Z,2.83
2022-08-27T12:30:55.311Z,3.67
2022-08-27T12:33:21.656Z,3.13
2022-08-27T12:35:47.978Z,3.00
2022-08-27T12:38:14.655Z,2.88
2022-08-27T12:40:42.452Z,3.92
2022-08-27T12:43:08.822Z,3.72
2022-08-27T12:45:35.121Z,3.83
2022-08-27T12:48:05.268Z,3.78
2022-08-27T12:50:31.840Z,3.45
2022-08-27T12:52:58.244Z,3.75
2022-08-27T12:55:25.012Z,3.88
2022-08-27T12:57:51.358Z,3.72
2022-08-27T13:00:19.398Z,4.07
2022-08-27T13:02:50.844Z,4.13
2022-08-27T13:05:17.301Z,4.10
2022-08-27T13:07:43.613Z,3.92
2022-08-27T13:10:10.381Z,3.88
2022-08-27T13:12:36.677Z,4.00
2022-08-27T13:15:02.979Z,4.63
2022-08-27T13:17:29.274Z,4.20
2022-08-27T13:19:57.888Z,4.70
2022-08-27T13:22:24.195Z,4.55
2022-08-27T13:24:50.506Z,3.90
2022-08-27T13:27:16.809Z,4.35
2022-08-27T13:29:43.108Z,4.80
2022-08-27T13:32:09.426Z,4.70
2022-08-27T13:34:35.716Z,4.90
2022-08-27T13:37:06.013Z,5.40
2022-08-27T13:39:32.351Z,5.32
2022-08-27T13:41:58.701Z,5.70
2022-08-27T13:44:25.036Z,5.95
2022-08-27T13:46:51.411Z,5.72
2022-08-27T13:49:17.866Z,6.07
2022-08-27T13:51:45.501Z,5.82
2022-08-27T13:54:15.805Z,6.22
2022-08-27T13:56:42.112Z,6.18
2022-08-27T13:59:10.510Z,7.50
2022-08-27T14:01:41.593Z,7.65
2022-08-27T14:04:07.968Z,7.00
2022-08-27T14:06:35.997Z,7.35
2022-08-27T14:09:02.406Z,7.80
2022-08-27T14:11:28.701Z,7.20
2022-08-27T14:13:55.412Z,7.57
2022-08-27T14:16:21.757Z,8.10
2022-08-27T14:18:58.894Z,7.60
2022-08-27T14:23:51.986Z,8.07
2022-08-27T14:26:18.363Z,8.30
2022-08-27T14:28:44.875Z,7.80
2022-08-27T14:31:11.641Z,8.65
2022-08-27T14:33:37.927Z,7.93
2022-08-27T14:36:04.231Z,8.18
2022-08-27T14:38:31.586Z,7.60
2022-08-27T14:40:58.490Z,8.95
2022-08-27T14:43:25.160Z,7.97
2022-08-27T14:45:51.677Z,7.28
2022-08-27T14:48:18.648Z,6.00
2022-08-27T14:50:45.831Z,5.75
2022-08-27T14:53:12.115Z,5.60
2022-08-27T14:55:38.686Z,6.05
2022-08-27T14:58:05.019Z,5.78
2022-08-27T15:00:31.339Z,4.82
2022-08-27T15:02:57.884Z,5.40
2022-08-27T15:05:24.946Z,5.70
2022-08-27T15:07:51.408Z,5.57
2022-08-27T15:10:17.707Z,5.18
2022-08-27T15:12:43.995Z,5.20
2022-08-27T15:15:10.522Z,5.38
2022-08-27T15:17:36.840Z,5.38
2022-08-27T15:20:03.255Z,5.20
2022-08-27T15:22:29.724Z,6.13
2022-08-27T15:24:56.024Z,5.43
2022-08-27T15:27:22.341Z,5.50
2022-08-27T15:29:53.853Z,6.05
2022-08-27T15:32:20.180Z,5.88
2022-08-27T15:34:48.957Z,6.25
2022-08-27T15:37:15.317Z,5.78
2022-08-27T15:39:41.611Z,5.35
2022-08-27T15:42:08.414Z,5.63
2022-08-27T15:44:34.722Z,5.43
2022-08-27T15:47:01.387Z,6.25
2022-08-27T15:49:27.701Z,7.05
2022-08-27T15:51:54.048Z,6.07
2022-08-27T15:54:20.663Z,5.50
2022-08-27T15:56:46.999Z,6.28
2022-08-27T15:59:13.304Z,5.75
2022-08-27T16:01:39.732Z,5.60
2022-08-27T16:04:06.163Z,5.88
2022-08-27T16:06:32.467Z,6.55
2022-08-27T16:08:58.788Z,6.07
2022-08-27T16:11:25.096Z,5.75
2022-08-27T16:13:51.459Z,5.93
2022-08-27T16:16:18.101Z,5.32
2022-08-27T16:18:44.464Z,5.35
2022-08-27T16:21:10.765Z,5.93
2022-08-27T16:23:37.434Z,5.63
2022-08-27T16:26:03.800Z,6.55
2022-08-27T16:28:30.120Z,5.57
2022-08-27T16:30:56.472Z,5.70
2022-08-27T16:33:23.364Z,5.78
2022-08-27T16:35:49.595Z,5.05
2022-08-27T16:38:16.489Z,5.95
2022-08-27T16:40:43.949Z,5.90
2022-08-27T16:43:10.376Z,5.82
2022-08-27T16:45:36.686Z,6.70
2022-08-27T16:48:21.571Z,6.78
2022-08-27T16:50:47.867Z,6.07
2022-08-27T16:53:14.252Z,6.07
2022-08-27T16:55:40.585Z,6.20
2022-08-27T16:58:06.911Z,6.70
2022-08-27T17:00:33.352Z,5.43
2022-08-27T17:02:59.686Z,6.78
2022-08-27T17:05:34.607Z,6.80
2022-08-27T17:08:07.707Z,6.80
2022-08-27T17:10:38.274Z,6.63
2022-08-27T17:13:04.692Z,6.00
2022-08-27T17:15:31.036Z,7.72
2022-08-27T17:17:57.876Z,8.88
2022-08-27T17:20:24.176Z,7.43
2022-08-27T17:22:51.571Z,7.95
2022-08-27T17:25:17.863Z,7.82
2022-08-27T17:27:44.177Z,8.18
2022-08-27T17:30:10.528Z,7.93
2022-08-27T17:32:37.284Z,8.07
2022-08-27T17:35:06.261Z,7.70
2022-08-27T17:37:32.880Z,7.65
2022-08-27T17:39:59.298Z,6.95
2022-08-27T17:42:26.417Z,7.03
2022-08-27T17:44:52.723Z,7.55
2022-08-27T17:47:20.643Z,7.40
2022-08-27T17:49:47.130Z,8.10
2022-08-27T17:52:13.524Z,7.30
2022-08-27T17:54:39.867Z,8.75
2022-08-27T17:57:06.877Z,7.68
2022-08-27T17:59:33.264Z,7.55
2022-08-27T18:01:59.823Z,7.63
2022-08-27T18:04:26.149Z,12.80
2022-08-27T18:06:52.447Z,29.33
2022-08-27T18:09:18.762Z,16.00
2022-08-27T18:11:45.062Z,10.13
2022-08-27T18:14:11.711Z,9.48
2022-08-27T18:16:38.485Z,9.57
2022-08-27T18:19:07.008Z,9.98
2022-08-27T18:21:33.551Z,8.88
2022-08-27T18:24:00.667Z,9.23
2022-08-27T18:26:26.987Z,9.18
2022-08-27T18:28:53.703Z,9.18
2022-08-27T18:31:20.091Z,8.68
2022-08-27T18:33:46.508Z,9.25
2022-08-27T18:36:12.844Z,9.70
2022-08-27T18:38:39.171Z,7.78
2022-08-27T18:41:05.469Z,9.30
2022-08-27T18:43:34.911Z,8.65
2022-08-27T18:46:01.326Z,9.15
2022-08-27T18:48:27.645Z,9.27
2022-08-27T18:50:55.503Z,7.10
2022-08-27T18:55:48.245Z,7.95
2022-08-27T18:58:14.536Z,7.18
2022-08-27T19:00:40.932Z,7.15
2022-08-27T19:03:07.832Z,7.30
2022-08-27T19:05:34.458Z,7.43
2022-08-27T19:08:02.104Z,7.00
2022-08-27T19:10:28.528Z,6.90
2022-08-27T19:12:54.857Z,5.90
2022-08-27T19:15:21.190Z,5.90
2022-08-27T19:17:47.509Z,5.97
2022-08-27T19:20:15.785Z,5.38
2022-08-27T19:22:42.084Z,5.93
2022-08-27T19:25:08.409Z,5.38
2022-08-27T19:27:34.704Z,5.25
2022-08-27T19:30:01.042Z,6.60
2022-08-27T19:32:27.348Z,5.50
2022-08-27T19:34:53.682Z,5.80
2022-08-27T19:37:19.986Z,5.93
2022-08-27T19:39:46.341Z,5.78
2022-08-27T19:42:12.697Z,7.03
2022-08-27T19:44:38.997Z,5.95
2022-08-27T19:47:05.325Z,5.35
2022-08-27T19:49:31.660Z,4.70
2022-08-27T19:51:57.961Z,4.97
2022-08-27T19:54:32.654Z,5.55
2022-08-27T19:57:00.371Z,5.22
2022-08-27T19:59:26.664Z,4.95
2022-08-27T20:01:53.844Z,4.00
2022-08-27T20:04:20.177Z,4.88
2022-08-27T20:06:46.542Z,4.70
2022-08-27T20:09:15.973Z,5.20
2022-08-27T20:11:42.270Z,4.40
2022-08-27T20:14:10.299Z,4.60
2022-08-27T20:16:36.888Z,4.82
2022-08-27T20:19:03.610Z,4.38
2022-08-27T20:21:29.948Z,3.78
2022-08-27T20:23:56.249Z,4.47
2022-08-27T20:26:23.203Z,5.00
2022-08-27T20:28:49.737Z,4.93
2022-08-27T20:31:17.324Z,5.60
2022-08-27T20:33:44.320Z,4.93
2022-08-27T20:36:11.032Z,5.63
2022-08-27T20:38:37.352Z,4.70
2022-08-27T20:41:03.656Z,4.80
2022-08-27T20:43:29.967Z,5.20
2022-08-27T20:45:56.441Z,4.75
2022-08-27T20:48:22.863Z,5.00
2022-08-27T20:50:49.160Z,5.05
2022-08-27T20:53:15.477Z,5.45
2022-08-27T20:55:41.791Z,5.60
2022-08-27T20:58:26.748Z,5.00
2022-08-27T21:00:53.080Z,5.30
2022-08-27T21:03:19.441Z,5.03
2022-08-27T21:05:48.351Z,4.70
2022-08-27T21:08:14.652Z,4.47
2022-08-27T21:10:41.676Z,4.50
2022-08-27T21:13:11.914Z,4.18
2022-08-27T21:15:38.688Z,4.45
2022-08-27T21:18:05.020Z,3.72
2022-08-27T21:20:32.265Z,3.55
2022-08-27T21:22:58.564Z,4.15
2022-08-27T21:25:25.369Z,3.72
2022-08-27T21:27:51.691Z,3.42
2022-08-27T21:30:18.011Z,3.33
2022-08-27T21:32:44.315Z,3.22
2022-08-27T21:35:10.616Z,3.47
2022-08-27T21:37:37.930Z,3.00
2022-08-27T21:40:04.302Z,2.90
2022-08-27T21:42:30.620Z,3.03
2022-08-27T21:44:56.943Z,3.22
2022-08-27T21:47:23.245Z,3.15
2022-08-27T21:49:49.591Z,3.13
2022-08-27T21:52:15.941Z,3.13
2022-08-27T21:54:42.254Z,3.47
2022-08-27T21:57:08.683Z,3.83
2022-08-27T21:59:38.828Z,3.13
2022-08-27T22:02:18.085Z,3.13
2022-08-27T22:04:51.407Z,3.55
2022-08-27T22:07:17.739Z,2.92
2022-08-27T22:09:44.057Z,3.42
2022-08-27T22:12:10.386Z,2.95
2022-08-27T22:14:36.759Z,4.00
2022-08-27T22:17:04.102Z,3.05
2022-08-27T22:19:30.407Z,3.00
2022-08-27T22:21:56.726Z,3.70
2022-08-27T22:24:23.024Z,4.18
2022-08-27T22:26:49.319Z,3.55
2022-08-27T22:29:16.483Z,4.38
2022-08-27T22:31:43.004Z,4.38
2022-08-27T22:34:14.964Z,3.42
2022-08-27T22:36:41.351Z,3.70
2022-08-27T22:39:07.704Z,3.85
2022-08-27T22:41:35.012Z,4.22
2022-08-27T22:46:28.139Z,4.80
2022-08-27T22:48:54.468Z,4.20
2022-08-27T22:51:20.770Z,3.80
2022-08-27T22:53:47.068Z,4.10
2022-08-27T22:56:13.379Z,4.38
2022-08-27T22:58:40.589Z,4.00
2022-08-27T23:01:12.214Z,4.20
2022-08-27T23:03:38.571Z,3.92
2022-08-27T23:06:04.946Z,4.72
2022-08-27T23:08:31.818Z,3.40
2022-08-27T23:10:58.121Z,4.22
2022-08-27T23:13:24.457Z,4.53
2022-08-27T23:15:50.799Z,3.53
2022-08-27T23:18:17.152Z,3.97
2022-08-27T23:20:43.459Z,4.07
2022-08-27T23:23:10.111Z,3.90
2022-08-27T23:25:55.824Z,3.75
2022-08-27T23:28:23.388Z,3.83
2022-08-27T23:30:49.787Z,3.50
2022-08-27T23:33:16.299Z,4.72
2022-08-27T23:35:47.554Z,4.50
2022-08-27T23:38:13.995Z,4.57
2022-08-27T23:40:40.857Z,4.47
2022-08-27T23:43:07.314Z,5.18
2022-08-27T23:45:38.315Z,4.68
2022-08-27T23:48:06.744Z,5.30
2022-08-27T23:50:34.042Z,5.85
2022-08-27T23:53:00.767Z,4.55
2022-08-27T23:55:27.071Z,5.25
2022-08-27T23:57:57.404Z,5.43
